createdAt,value
2023-02-03T00:00:34.524Z,4.60
2023-02-03T00:03:02.840Z,5.50
2023-02-03T00:05:31.459Z,5.50
2023-02-03T00:08:00.133Z,4.20
2023-02-03T00:10:28.516Z,4.78
2023-02-03T00:12:57.817Z,6.55
2023-02-03T00:15:27.878Z,6.20
2023-02-03T00:17:56.262Z,5.53
2023-02-03T00:20:26.036Z,7.03
2023-02-03T00:22:54.598Z,5.70
2023-02-03T00:25:24.192Z,8.52
2023-02-03T00:27:52.522Z,5.13
2023-02-03T00:30:20.871Z,6.28
2023-02-03T00:32:50.530Z,4.88
2023-02-03T00:35:18.871Z,4.97
2023-02-03T00:37:53.071Z,4.57
2023-02-03T00:40:21.518Z,5.90
2023-02-03T00:42:49.944Z,7.00
2023-02-03T00:45:18.650Z,6.63
2023-02-03T00:47:46.973Z,5.38
2023-02-03T00:50:16.728Z,7.60
2023-02-03T00:52:45.008Z,6.60
2023-02-03T00:55:13.343Z,7.63
2023-02-03T00:57:41.985Z,6.00
2023-02-03T01:00:10.932Z,4.68
2023-02-03T01:02:39.284Z,5.30
2023-02-03T01:05:08.010Z,7.85
2023-02-03T01:07:37.647Z,7.03
2023-02-03T01:10:06.503Z,4.70
2023-02-03T01:12:35.166Z,6.45
2023-02-03T01:15:03.423Z,5.15
2023-02-03T01:17:31.824Z,5.80
2023-02-03T01:20:00.115Z,5.85
2023-02-03T01:22:30.711Z,6.60
2023-02-03T01:25:00.361Z,8.23
2023-02-03T01:27:28.707Z,4.97
2023-02-03T01:29:57.061Z,6.18
2023-02-03T01:32:25.366Z,5.97
2023-02-03T01:34:53.637Z,7.53
2023-02-03T01:37:21.929Z,5.22
2023-02-03T01:39:50.190Z,5.70
2023-02-03T01:42:19.835Z,5.93
2023-02-03T01:44:51.157Z,6.15
2023-02-03T01:47:24.372Z,6.15
2023-02-03T01:49:54.780Z,6.85
2023-02-03T01:52:23.131Z,6.70
2023-02-03T01:54:52.227Z,9.07
2023-02-03T01:57:24.939Z,6.22
2023-02-03T01:59:55.669Z,6.07
2023-02-03T02:02:24.577Z,5.15
2023-02-03T02:04:55.759Z,7.57
2023-02-03T02:07:25.167Z,5.93
2023-02-03T02:09:53.506Z,9.68
2023-02-03T02:12:23.192Z,6.60
2023-02-03T02:14:51.495Z,5.38
2023-02-03T02:17:29.659Z,7.60
2023-02-03T02:20:14.598Z,7.85
2023-02-03T02:22:49.235Z,7.18
2023-02-03T02:25:32.642Z,7.28
2023-02-03T02:28:11.745Z,6.65
2023-02-03T02:30:53.994Z,8.50
2023-02-03T02:33:28.317Z,8.02
2023-02-03T02:35:59.360Z,7.00
2023-02-03T02:38:34.771Z,6.00
2023-02-03T02:41:07.465Z,7.25
2023-02-03T02:43:41.403Z,6.18
2023-02-03T02:46:12.525Z,8.40
2023-02-03T02:48:45.019Z,7.35
2023-02-03T02:51:14.545Z,6.95
2023-02-03T02:53:46.341Z,7.88
2023-02-03T02:56:16.096Z,8.48
2023-02-03T02:58:47.208Z,7.10
2023-02-03T03:01:16.829Z,11.48
2023-02-03T03:03:46.877Z,8.40
2023-02-03T03:06:18.735Z,8.20
2023-02-03T03:08:50.003Z,6.18
2023-02-03T03:11:19.294Z,6.20
2023-02-03T03:13:50.198Z,7.05
2023-02-03T03:16:20.058Z,7.80
2023-02-03T03:18:51.071Z,5.50
2023-02-03T03:21:21.938Z,7.63
2023-02-03T03:23:52.790Z,7.35
2023-02-03T03:26:24.738Z,7.53
2023-02-03T03:28:54.415Z,7.50
2023-02-03T03:31:22.792Z,7.82
2023-02-03T03:33:52.587Z,7.70
2023-02-03T03:36:24.453Z,7.28
2023-02-03T03:38:56.485Z,6.75
2023-02-03T03:41:28.800Z,8.18
2023-02-03T03:43:58.818Z,6.45
2023-02-03T03:46:29.048Z,5.95
2023-02-03T03:49:00.368Z,5.40
2023-02-03T03:51:30.377Z,6.53
2023-02-03T03:54:01.089Z,5.60
2023-02-03T03:56:30.636Z,7.07
2023-02-03T03:58:59.748Z,7.65
2023-02-03T04:01:28.462Z,7.25
2023-02-03T04:03:58.461Z,8.55
2023-02-03T04:06:28.352Z,7.97
2023-02-03T04:08:56.834Z,7.93
2023-02-03T04:11:42.603Z,7.93
2023-02-03T04:14:10.898Z,7.35
2023-02-03T04:16:39.200Z,6.57
2023-02-03T04:19:08.577Z,6.63
2023-02-03T04:21:38.334Z,6.88
2023-02-03T04:24:07.048Z,6.45
2023-02-03T04:26:35.401Z,5.88
2023-02-03T04:29:04.278Z,8.57
2023-02-03T04:31:32.663Z,5.30
2023-02-03T04:34:01.016Z,6.57
2023-02-03T04:36:29.393Z,5.90
2023-02-03T04:38:59.066Z,5.88
2023-02-03T04:41:27.782Z,6.38
2023-02-03T04:43:56.104Z,6.70
2023-02-03T04:46:24.459Z,6.45
2023-02-03T04:48:52.740Z,5.38
2023-02-03T04:51:21.074Z,5.53
2023-02-03T04:53:49.734Z,4.63
2023-02-03T04:56:19.856Z,4.53
2023-02-03T04:58:48.150Z,4.68
2023-02-03T05:01:16.477Z,4.45
2023-02-03T05:03:45.297Z,4.20
2023-02-03T05:06:13.578Z,5.03
2023-02-03T05:08:41.912Z,4.47
2023-02-03T05:11:10.205Z,4.00
2023-02-03T05:13:39.865Z,5.25
2023-02-03T05:16:08.638Z,5.70
2023-02-03T05:18:36.949Z,4.43
2023-02-03T05:21:05.315Z,4.43
2023-02-03T05:23:36.360Z,3.55
2023-02-03T05:26:05.047Z,4.25
2023-02-03T05:28:33.427Z,3.47
2023-02-03T05:31:03.835Z,4.57
2023-02-03T05:33:32.467Z,4.60
2023-02-03T05:36:00.746Z,4.05
2023-02-03T05:38:29.286Z,3.50
2023-02-03T05:41:15.145Z,3.72
2023-02-03T05:43:43.452Z,4.75
2023-02-03T05:46:13.173Z,3.35
2023-02-03T05:48:41.581Z,2.67
2023-02-03T05:51:09.915Z,5.18
2023-02-03T05:53:38.222Z,3.47
2023-02-03T05:56:08.446Z,3.28
2023-02-03T05:58:36.759Z,4.90
2023-02-03T06:01:05.113Z,2.35
2023-02-03T06:03:34.873Z,4.13
2023-02-03T06:06:03.326Z,3.10
2023-02-03T06:08:31.619Z,2.60
2023-02-03T06:11:00.797Z,2.13
2023-02-03T06:13:29.171Z,2.50
2023-02-03T06:15:57.513Z,2.28
2023-02-03T06:18:25.997Z,2.90
2023-02-03T06:20:55.659Z,3.08
2023-02-03T06:23:24.380Z,2.40
2023-02-03T06:25:53.210Z,3.55
2023-02-03T06:28:21.960Z,3.17
2023-02-03T06:30:52.124Z,5.80
2023-02-03T06:33:20.640Z,3.15
2023-02-03T06:35:48.931Z,3.20
2023-02-03T06:38:18.619Z,3.38
2023-02-03T06:40:48.342Z,3.22
2023-02-03T06:43:16.719Z,2.97
2023-02-03T06:45:47.920Z,3.38
2023-02-03T06:48:16.489Z,3.58
2023-02-03T06:50:45.998Z,3.88
2023-02-03T06:53:15.811Z,4.72
2023-02-03T06:55:45.443Z,3.65
2023-02-03T06:58:13.716Z,7.40
2023-02-03T07:00:42.015Z,3.28
2023-02-03T07:03:10.287Z,4.57
2023-02-03T07:05:38.601Z,4.00
2023-02-03T07:08:07.088Z,3.65
2023-02-03T07:10:35.365Z,4.10
2023-02-03T07:13:06.105Z,6.93
2023-02-03T07:15:34.528Z,4.78
2023-02-03T07:18:02.950Z,3.70
2023-02-03T07:20:32.918Z,5.60
2023-02-03T07:23:01.628Z,4.20
2023-02-03T07:25:29.950Z,4.25
2023-02-03T07:27:58.315Z,5.63
2023-02-03T07:30:28.299Z,4.60
2023-02-03T07:32:56.846Z,5.55
2023-02-03T07:35:25.491Z,3.78
2023-02-03T07:37:53.748Z,3.72
2023-02-03T07:40:22.371Z,3.65
2023-02-03T07:42:51.685Z,3.92
2023-02-03T07:45:22.126Z,4.30
2023-02-03T07:47:51.749Z,4.57
2023-02-03T07:50:20.133Z,4.72
2023-02-03T07:52:48.394Z,4.35
2023-02-03T07:55:16.714Z,3.83
2023-02-03T07:57:45.345Z,4.18
2023-02-03T08:00:14.424Z,4.80
2023-02-03T08:02:42.874Z,4.10
2023-02-03T08:05:13.227Z,5.05
2023-02-03T08:07:41.901Z,4.57
2023-02-03T08:10:10.805Z,4.65
2023-02-03T08:12:39.123Z,4.25
2023-02-03T08:15:08.650Z,3.42
2023-02-03T08:17:36.981Z,6.18
2023-02-03T08:20:05.558Z,3.70
2023-02-03T08:22:35.197Z,4.10
2023-02-03T08:25:03.977Z,4.75
2023-02-03T08:27:33.768Z,4.95
2023-02-03T08:30:02.056Z,5.38
2023-02-03T08:32:30.717Z,3.28
2023-02-03T08:34:59.035Z,3.35
2023-02-03T08:37:28.314Z,5.05
2023-02-03T08:39:58.067Z,3.75
2023-02-03T08:42:26.449Z,4.93
2023-02-03T08:44:54.771Z,3.53
2023-02-03T08:47:23.094Z,5.13
2023-02-03T08:49:51.430Z,3.83
2023-02-03T08:52:20.282Z,3.17
2023-02-03T08:54:49.269Z,3.45
2023-02-03T08:57:18.980Z,3.40
2023-02-03T08:59:47.438Z,3.67
2023-02-03T09:02:17.254Z,4.30
2023-02-03T09:04:46.008Z,3.65
2023-02-03T09:07:14.438Z,5.45
2023-02-03T09:09:42.794Z,3.63
2023-02-03T09:12:12.952Z,3.33
2023-02-03T09:14:42.663Z,5.25
2023-02-03T09:17:11.455Z,5.47
2023-02-03T09:19:39.904Z,4.40
2023-02-03T09:22:08.276Z,3.70
2023-02-03T09:24:37.144Z,4.47
2023-02-03T09:27:05.459Z,4.72
2023-02-03T09:29:33.757Z,5.65
2023-02-03T09:32:07.777Z,3.30
2023-02-03T09:34:36.131Z,3.50
2023-02-03T09:37:05.347Z,4.40
2023-02-03T09:39:33.668Z,3.22
2023-02-03T09:42:16.783Z,3.50
2023-02-03T09:44:49.536Z,4.55
2023-02-03T09:47:22.186Z,4.22
2023-02-03T09:49:52.016Z,3.25
2023-02-03T09:52:22.721Z,3.70
2023-02-03T09:54:54.997Z,3.28
2023-02-03T09:57:24.737Z,3.70
2023-02-03T09:59:54.528Z,3.88
2023-02-03T10:02:39.924Z,2.30
2023-02-03T10:05:12.826Z,6.10
2023-02-03T10:07:44.399Z,4.95
2023-02-03T10:10:18.060Z,2.72
2023-02-03T10:12:54.801Z,4.63
2023-02-03T10:15:41.022Z,3.90
2023-02-03T10:18:14.703Z,3.15
2023-02-03T10:20:45.195Z,2.67
2023-02-03T10:23:16.486Z,3.13
2023-02-03T10:25:47.103Z,3.22
2023-02-03T10:28:17.342Z,3.35
2023-02-03T10:30:47.959Z,3.38
2023-02-03T10:33:18.820Z,4.80
2023-02-03T10:35:51.264Z,5.38
2023-02-03T10:38:25.903Z,2.95
2023-02-03T10:40:54.373Z,3.90
2023-02-03T10:43:40.131Z,3.38
2023-02-03T10:46:08.517Z,4.03
2023-02-03T10:48:38.252Z,3.53
2023-02-03T10:51:06.870Z,2.80
2023-02-03T10:53:36.116Z,3.35
2023-02-03T10:56:06.302Z,3.35
2023-02-03T10:58:35.735Z,2.60
2023-02-03T11:01:11.957Z,3.85
2023-02-03T11:03:43.674Z,2.25
2023-02-03T11:06:12.836Z,2.92
2023-02-03T11:08:42.088Z,3.08
2023-02-03T11:11:11.066Z,3.20
2023-02-03T11:13:39.410Z,5.47
2023-02-03T11:16:08.789Z,3.28
2023-02-03T11:18:42.900Z,3.92
2023-02-03T11:21:12.433Z,4.75
2023-02-03T11:23:46.535Z,5.07
2023-02-03T11:26:16.792Z,6.22
2023-02-03T11:28:46.212Z,2.40
2023-02-03T11:31:18.847Z,2.85
2023-02-03T11:33:52.913Z,2.47
2023-02-03T11:36:21.762Z,2.03
2023-02-03T11:38:50.526Z,2.65
2023-02-03T11:41:21.057Z,2.38
2023-02-03T11:43:50.767Z,2.65
2023-02-03T11:46:19.125Z,3.55
2023-02-03T11:48:54.197Z,2.25
2023-02-03T11:51:28.552Z,2.72
2023-02-03T11:54:04.816Z,2.35
2023-02-03T11:56:52.515Z,3.63
2023-02-03T11:59:38.034Z,2.83
2023-02-03T12:02:39.299Z,3.22
2023-02-03T12:05:25.259Z,2.50
2023-02-03T12:08:02.889Z,2.78
2023-02-03T12:10:36.807Z,2.63
2023-02-03T12:13:12.451Z,2.55
2023-02-03T12:15:47.077Z,3.88
2023-02-03T12:18:19.330Z,3.38
2023-02-03T12:20:53.487Z,2.83
2023-02-03T12:23:31.048Z,3.38
2023-02-03T12:26:05.714Z,2.92
2023-02-03T12:28:41.641Z,1.42
2023-02-03T12:31:13.836Z,4.43
2023-02-03T12:33:44.625Z,2.13
2023-02-03T12:36:15.571Z,4.18
2023-02-03T12:38:47.104Z,4.85
2023-02-03T12:41:17.674Z,3.63
2023-02-03T12:43:49.341Z,1.88
2023-02-03T12:46:20.187Z,1.98
2023-02-03T12:48:52.379Z,2.17
2023-02-03T12:51:26.195Z,2.08
2023-02-03T12:56:26.301Z,1.27
2023-02-03T12:58:58.039Z,4.00
2023-02-03T13:01:27.803Z,3.45
2023-02-03T13:04:00.113Z,3.75
2023-02-03T13:06:32.367Z,3.10
2023-02-03T13:09:03.063Z,2.35
2023-02-03T13:11:36.794Z,2.75
2023-02-03T13:14:07.679Z,2.08
2023-02-03T13:16:37.806Z,1.50
2023-02-03T13:19:08.872Z,2.05
2023-02-03T13:21:37.468Z,2.45
2023-02-03T13:24:06.170Z,1.80
2023-02-03T13:26:43.805Z,1.98
2023-02-03T13:29:22.375Z,1.35
2023-02-03T13:31:57.138Z,2.72
2023-02-03T13:34:31.785Z,2.15
2023-02-03T13:37:12.210Z,1.02
2023-02-03T13:39:48.467Z,1.70
2023-02-03T13:42:22.967Z,1.70
2023-02-03T13:44:52.909Z,2.08
2023-02-03T13:47:24.089Z,3.08
2023-02-03T13:49:55.408Z,1.67
2023-02-03T13:52:32.021Z,1.92
2023-02-03T13:55:00.867Z,1.00
2023-02-03T13:57:34.467Z,2.17
2023-02-03T14:00:04.221Z,1.65
2023-02-03T14:02:42.292Z,1.50
2023-02-03T14:05:31.191Z,2.10
2023-02-03T14:07:59.474Z,0.98
2023-02-03T14:10:27.837Z,1.27
2023-02-03T14:12:59.756Z,1.88
2023-02-03T14:15:32.935Z,1.60
2023-02-03T14:18:08.125Z,2.55
2023-02-03T14:20:43.310Z,1.10
2023-02-03T14:23:14.714Z,2.13
2023-02-03T14:25:43.878Z,1.33
2023-02-03T14:28:15.196Z,1.13
2023-02-03T14:31:02.328Z,2.20
2023-02-03T14:33:45.587Z,1.42
2023-02-03T14:36:27.842Z,2.80
2023-02-03T14:38:56.965Z,1.38
2023-02-03T14:41:28.648Z,2.92
2023-02-03T14:44:02.811Z,1.35
2023-02-03T14:46:45.533Z,2.00
2023-02-03T14:49:32.125Z,1.70
2023-02-03T14:52:07.507Z,1.48
2023-02-03T14:54:56.520Z,1.48
2023-02-03T14:57:30.763Z,1.65
2023-02-03T15:00:03.334Z,1.60
2023-02-03T15:02:32.393Z,2.17
2023-02-03T15:05:19.328Z,1.13
2023-02-03T15:07:49.370Z,2.63
2023-02-03T15:10:18.979Z,2.47
2023-02-03T15:12:49.593Z,3.95
2023-02-03T15:15:23.895Z,1.70
2023-02-03T15:17:52.663Z,2.05
2023-02-03T15:20:33.766Z,2.20
2023-02-03T15:23:02.447Z,2.42
2023-02-03T15:25:33.000Z,2.28
2023-02-03T15:28:13.961Z,2.50
2023-02-03T15:30:43.959Z,2.35
2023-02-03T15:33:20.353Z,2.00
2023-02-03T15:35:50.478Z,2.08
2023-02-03T15:38:21.800Z,1.85
2023-02-03T15:40:51.355Z,2.33
2023-02-03T15:43:21.205Z,2.33
2023-02-03T15:45:56.667Z,3.00
2023-02-03T15:48:29.356Z,1.40
2023-02-03T15:50:59.726Z,1.38
2023-02-03T15:53:41.040Z,2.83
2023-02-03T15:56:20.447Z,2.30
2023-02-03T16:01:21.101Z,2.13
2023-02-03T16:03:52.622Z,1.40
2023-02-03T16:06:27.268Z,2.03
2023-02-03T16:08:57.086Z,1.65
2023-02-03T16:11:26.786Z,1.35
2023-02-03T16:14:01.781Z,1.42
2023-02-03T16:16:33.669Z,1.08
2023-02-03T16:19:03.846Z,2.85
2023-02-03T16:21:38.223Z,1.42
2023-02-03T16:24:07.157Z,1.42
2023-02-03T16:26:38.558Z,1.52
2023-02-03T16:29:31.954Z,1.45
2023-02-03T16:32:19.910Z,2.40
2023-02-03T16:35:08.270Z,1.90
2023-02-03T16:38:01.989Z,2.55
2023-02-03T16:40:48.106Z,2.38
2023-02-03T16:43:35.629Z,1.83
2023-02-03T16:46:21.628Z,1.95
2023-02-03T16:49:11.301Z,1.80
2023-02-03T16:51:43.262Z,4.07
2023-02-03T16:54:13.132Z,5.63
2023-02-03T16:56:41.841Z,4.63
2023-02-03T16:59:13.126Z,4.60
2023-02-03T17:01:41.470Z,5.30
2023-02-03T17:04:11.886Z,4.65
2023-02-03T17:06:44.111Z,4.05
2023-02-03T17:09:15.538Z,6.07
2023-02-03T17:11:45.356Z,4.38
2023-02-03T17:14:16.963Z,4.85
2023-02-03T17:16:45.241Z,5.57
2023-02-03T17:19:17.575Z,5.05
2023-02-03T17:21:45.863Z,4.05
2023-02-03T17:24:14.107Z,4.63
2023-02-03T17:26:42.412Z,5.47
2023-02-03T17:29:12.857Z,2.97
2023-02-03T17:31:41.142Z,6.68
2023-02-03T17:34:09.469Z,4.25
2023-02-03T17:36:41.306Z,5.00
2023-02-03T17:55:33.174Z,3.58
2023-02-03T17:58:01.712Z,2.55
2023-02-03T18:00:30.115Z,4.50
2023-02-03T18:02:58.741Z,2.35
2023-02-03T18:05:28.745Z,2.75
2023-02-03T18:07:57.930Z,2.50
2023-02-03T18:10:29.075Z,2.60
2023-02-03T18:12:57.518Z,2.50
2023-02-03T18:15:25.751Z,2.42
2023-02-03T18:17:53.992Z,2.40
2023-02-03T18:20:22.236Z,3.58
2023-02-03T18:22:50.476Z,2.92
2023-02-03T18:25:18.722Z,2.38
2023-02-03T18:27:48.310Z,2.92
2023-02-03T18:30:18.265Z,3.10
2023-02-03T18:32:47.698Z,2.90
2023-02-03T18:35:17.257Z,4.30
2023-02-03T18:37:45.773Z,3.28
2023-02-03T18:40:14.161Z,4.13
2023-02-03T18:42:42.405Z,4.68
2023-02-03T18:45:12.817Z,3.70
2023-02-03T18:47:41.579Z,5.05
2023-02-03T18:50:10.974Z,3.78
2023-02-03T18:52:39.208Z,3.78
2023-02-03T18:55:07.856Z,2.78
2023-02-03T18:57:36.096Z,3.90
2023-02-03T19:00:04.808Z,3.15
2023-02-03T19:02:35.218Z,5.03
2023-02-03T19:05:04.321Z,3.65
2023-02-03T19:07:32.640Z,3.65
2023-02-03T19:10:01.282Z,3.35
2023-02-03T19:12:29.521Z,3.50
2023-02-03T19:14:57.771Z,5.07
2023-02-03T19:17:26.183Z,4.07
2023-02-03T19:19:55.806Z,4.45
2023-02-03T19:22:24.050Z,3.47
2023-02-03T19:24:52.304Z,5.50
2023-02-03T19:27:20.560Z,3.40
2023-02-03T19:29:48.919Z,6.03
2023-02-03T19:32:17.320Z,3.08
2023-02-03T19:34:45.630Z,4.72
2023-02-03T19:37:15.222Z,3.90
2023-02-03T19:39:45.051Z,3.45
2023-02-03T19:42:13.291Z,6.60
2023-02-03T19:44:41.535Z,3.25
2023-02-03T19:47:09.792Z,4.88
2023-02-03T19:49:38.064Z,3.15
2023-02-03T19:52:09.263Z,5.28
2023-02-03T19:54:38.855Z,4.85
2023-02-03T19:57:07.079Z,3.50
2023-02-03T19:59:38.395Z,6.43
2023-02-03T20:02:13.767Z,5.72
2023-02-03T20:04:44.056Z,8.18
2023-02-03T20:07:12.777Z,6.63
2023-02-03T20:09:42.452Z,7.90
2023-02-03T20:12:10.698Z,6.35
2023-02-03T20:14:38.949Z,6.95
2023-02-03T20:17:07.562Z,7.10
2023-02-03T20:19:35.817Z,8.18
2023-02-03T20:22:07.050Z,6.25
2023-02-03T20:24:35.324Z,8.50
2023-02-03T20:27:05.121Z,8.18
2023-02-03T20:29:33.363Z,6.72
2023-02-03T20:32:09.466Z,7.65
2023-02-03T20:34:37.805Z,6.00
2023-02-03T20:37:06.889Z,6.82
2023-02-03T20:39:35.185Z,7.78
2023-02-03T20:42:04.785Z,7.53
2023-02-03T20:44:33.029Z,7.28
2023-02-03T20:47:01.364Z,7.53
2023-02-03T20:49:29.778Z,9.63
2023-02-03T20:51:58.176Z,8.18
2023-02-03T20:54:26.522Z,6.78
2023-02-03T20:56:54.893Z,8.20
2023-02-03T20:59:24.594Z,7.53
2023-02-03T21:01:53.077Z,6.40
2023-02-03T21:04:45.565Z,7.72
2023-02-03T21:07:15.429Z,6.40
2023-02-03T21:09:43.666Z,7.60
2023-02-03T21:12:12.627Z,6.50
2023-02-03T21:14:43.613Z,7.75
2023-02-03T21:17:21.773Z,8.45
2023-02-03T21:19:50.442Z,5.47
2023-02-03T21:22:21.877Z,3.97
2023-02-03T21:24:54.000Z,7.75
2023-02-03T21:27:27.157Z,6.05
2023-02-03T21:29:57.499Z,7.97
2023-02-03T21:32:26.857Z,6.82
2023-02-03T21:34:55.209Z,6.88
2023-02-03T21:37:40.050Z,11.25
2023-02-03T21:40:18.459Z,8.45
2023-02-03T21:42:47.083Z,9.18
2023-02-03T21:45:39.693Z,10.90
2023-02-03T21:48:28.360Z,6.93
2023-02-03T21:51:02.505Z,7.18
2023-02-03T21:53:35.179Z,6.78
2023-02-03T21:56:18.190Z,8.30
2023-02-03T21:58:47.634Z,8.02
2023-02-03T22:01:18.174Z,10.10
2023-02-03T22:03:49.786Z,9.57
2023-02-03T22:06:20.578Z,6.47
2023-02-03T22:08:50.065Z,6.88
2023-02-03T22:11:19.486Z,6.28
2023-02-03T22:13:48.459Z,6.90
2023-02-03T22:16:23.854Z,8.77
2023-02-03T22:18:59.066Z,7.55
2023-02-03T22:21:27.409Z,8.30
2023-02-03T22:23:57.462Z,7.38
2023-02-03T22:26:26.901Z,8.43
2023-02-03T22:28:57.763Z,8.77
2023-02-03T22:31:32.766Z,11.15
2023-02-03T22:34:01.246Z,6.70
2023-02-03T22:36:31.760Z,7.60
2023-02-03T22:39:00.255Z,8.93
2023-02-03T22:41:28.675Z,7.78
2023-02-03T22:43:59.410Z,6.38
2023-02-03T22:46:29.126Z,8.30
2023-02-03T22:49:02.666Z,9.95
2023-02-03T22:51:30.951Z,6.70
2023-02-03T22:53:59.290Z,7.63
2023-02-03T22:56:27.629Z,11.80
2023-02-03T22:58:55.943Z,8.90
2023-02-03T23:01:26.838Z,8.10
2023-02-03T23:03:56.673Z,7.90
2023-02-03T23:06:25.263Z,8.45
2023-02-03T23:08:55.385Z,7.82
2023-02-03T23:11:23.640Z,8.75
2023-02-03T23:13:51.859Z,5.45
2023-02-03T23:16:20.132Z,8.48
2023-02-03T23:18:50.410Z,10.13
2023-02-03T23:21:20.018Z,4.60
2023-02-03T23:23:48.233Z,7.10
2023-02-03T23:26:16.498Z,6.95
2023-02-03T23:28:44.726Z,7.13
2023-02-03T23:31:15.264Z,8.48
2023-02-03T23:34:03.954Z,7.03
2023-02-03T23:36:35.657Z,8.18
2023-02-03T23:39:03.887Z,7.47
2023-02-03T23:41:32.158Z,5.43
2023-02-03T23:44:03.232Z,11.52
2023-02-03T23:46:31.561Z,9.60
2023-02-03T23:48:59.859Z,10.30
2023-02-03T23:51:28.148Z,5.85
2023-02-03T23:53:57.773Z,8.35
2023-02-03T23:56:26.205Z,10.38
2023-02-03T23:58:54.493Z,9.73
